createdAt,value
2022-12-14T00:00:41.944Z,22.55
2022-12-14T00:03:11.655Z,23.00
2022-12-14T00:05:44.429Z,23.85
2022-12-14T00:08:14.142Z,24.15
2022-12-14T00:10:44.253Z,21.98
2022-12-14T00:13:17.267Z,22.05
2022-12-14T00:15:46.825Z,21.40
2022-12-14T00:18:20.851Z,22.75
2022-12-14T00:20:54.566Z,20.98
2022-12-14T00:23:24.085Z,20.88
2022-12-14T00:25:53.573Z,22.15
2022-12-14T00:28:23.119Z,21.80
2022-12-14T00:30:59.288Z,20.25
2022-12-14T00:33:28.918Z,21.70
2022-12-14T00:36:01.008Z,21.08
2022-12-14T00:38:30.691Z,21.25
2022-12-14T00:41:00.299Z,22.48
2022-12-14T00:43:29.744Z,19.80
2022-12-14T00:45:59.419Z,21.95
2022-12-14T00:48:29.886Z,20.55
2022-12-14T00:51:02.343Z,20.65
2022-12-14T00:53:32.355Z,21.00
2022-12-14T00:56:07.851Z,21.88
2022-12-14T00:58:37.440Z,18.98
2022-12-14T01:01:09.091Z,18.77
2022-12-14T01:03:38.697Z,45.47
2022-12-14T01:06:16.172Z,42.83
2022-12-14T01:08:45.670Z,53.45
2022-12-14T01:11:16.173Z,34.78
2022-12-14T01:13:49.326Z,24.60
2022-12-14T01:16:19.715Z,20.08
2022-12-14T01:18:49.200Z,19.75
2022-12-14T01:21:24.062Z,18.80
2022-12-14T01:23:55.037Z,20.05
2022-12-14T01:26:25.888Z,18.95
2022-12-14T01:28:57.338Z,18.00
2022-12-14T01:31:28.421Z,19.58
2022-12-14T01:33:58.059Z,18.23
2022-12-14T01:36:31.999Z,18.85
2022-12-14T01:39:03.422Z,19.35
2022-12-14T01:41:34.891Z,18.42
2022-12-14T01:44:06.238Z,18.10
2022-12-14T01:46:38.487Z,16.35
2022-12-14T01:49:14.023Z,16.02
2022-12-14T01:51:49.400Z,16.10
2022-12-14T01:54:18.994Z,16.08
2022-12-14T01:56:49.095Z,17.88
2022-12-14T01:59:22.266Z,16.35
2022-12-14T02:01:51.870Z,15.90
2022-12-14T02:04:21.733Z,15.40
2022-12-14T02:07:00.818Z,15.32
2022-12-14T02:09:34.383Z,16.05
2022-12-14T02:12:09.104Z,15.82
2022-12-14T02:14:39.032Z,16.10
2022-12-14T02:17:10.009Z,15.98
2022-12-14T02:19:39.603Z,16.58
2022-12-14T02:22:30.645Z,16.05
2022-12-14T02:25:25.811Z,17.13
2022-12-14T02:28:21.897Z,15.10
2022-12-14T02:30:58.896Z,14.93
2022-12-14T02:33:38.143Z,16.15
2022-12-14T02:36:12.686Z,15.27
2022-12-14T02:38:49.751Z,17.08
2022-12-14T02:41:22.951Z,17.02
2022-12-14T02:43:57.484Z,16.40
2022-12-14T02:46:32.559Z,16.33
2022-12-14T02:49:05.088Z,15.63
2022-12-14T02:51:43.647Z,15.75
2022-12-14T02:54:15.409Z,15.70
2022-12-14T02:56:47.988Z,17.40
2022-12-14T02:59:18.639Z,17.60
2022-12-14T03:01:52.042Z,17.30
2022-12-14T03:04:21.706Z,14.52
2022-12-14T03:06:57.963Z,15.55
2022-12-14T03:09:28.799Z,15.32
2022-12-14T03:12:00.429Z,14.88
2022-12-14T03:14:32.613Z,14.88
2022-12-14T03:17:07.823Z,17.95
2022-12-14T03:19:40.172Z,15.43
2022-12-14T03:22:12.464Z,17.15
2022-12-14T03:24:44.917Z,17.70
2022-12-14T03:27:16.946Z,15.95
2022-12-14T03:29:49.316Z,15.45
2022-12-14T03:32:23.572Z,16.23
2022-12-14T03:34:57.577Z,17.15
2022-12-14T03:37:32.851Z,16.40
2022-12-14T03:40:02.264Z,18.23
2022-12-14T03:42:36.966Z,16.95
2022-12-14T03:45:10.453Z,15.48
2022-12-14T03:47:55.509Z,14.70
2022-12-14T03:50:27.811Z,16.23
2022-12-14T03:53:00.362Z,16.38
2022-12-14T03:55:34.478Z,17.17
2022-12-14T03:58:16.176Z,15.77
2022-12-14T04:00:51.244Z,16.05
2022-12-14T04:03:31.161Z,15.45
2022-12-14T04:06:04.901Z,15.23
2022-12-14T04:08:40.167Z,15.90
2022-12-14T04:11:24.123Z,16.45
2022-12-14T04:14:11.768Z,15.63
2022-12-14T04:16:56.667Z,16.48
2022-12-14T04:19:33.853Z,16.58
2022-12-14T04:22:06.790Z,15.13
2022-12-14T04:24:52.847Z,16.95
2022-12-14T04:27:25.354Z,16.23
2022-12-14T04:30:00.465Z,14.40
2022-12-14T04:32:33.301Z,14.60
2022-12-14T04:35:08.738Z,15.50
2022-12-14T04:37:40.151Z,20.25
2022-12-14T04:40:12.207Z,20.27
2022-12-14T04:42:47.009Z,38.30
2022-12-14T04:45:19.404Z,37.28
2022-12-14T04:47:59.256Z,24.73
2022-12-14T04:50:34.734Z,17.88
2022-12-14T04:53:06.641Z,16.00
2022-12-14T04:55:38.394Z,16.15
2022-12-14T04:58:13.073Z,17.20
2022-12-14T05:00:54.727Z,17.35
2022-12-14T05:03:27.691Z,18.83
2022-12-14T05:06:09.015Z,18.73
2022-12-14T05:09:08.800Z,17.10
2022-12-14T05:11:56.939Z,17.65
2022-12-14T05:14:32.326Z,16.52
2022-12-14T05:17:07.955Z,17.88
2022-12-14T05:19:38.052Z,17.73
2022-12-14T05:22:11.192Z,14.70
2022-12-14T05:24:40.821Z,15.50
2022-12-14T05:27:10.386Z,15.07
2022-12-14T05:29:39.815Z,15.65
2022-12-14T05:32:09.295Z,16.55
2022-12-14T05:34:38.664Z,17.35
2022-12-14T05:37:17.672Z,17.13
2022-12-14T05:39:47.696Z,16.58
2022-12-14T05:42:17.178Z,16.98
2022-12-14T05:44:46.613Z,17.02
2022-12-14T05:47:16.821Z,16.27
2022-12-14T05:49:46.256Z,16.80
2022-12-14T05:52:21.465Z,15.55
2022-12-14T05:54:50.816Z,16.75
2022-12-14T05:57:20.205Z,15.80
2022-12-14T05:59:50.486Z,16.55
2022-12-14T06:02:20.093Z,17.17
2022-12-14T06:04:49.612Z,15.23
2022-12-14T06:07:26.061Z,16.95
2022-12-14T06:09:57.057Z,16.67
2022-12-14T06:12:26.459Z,16.88
2022-12-14T06:14:55.846Z,18.38
2022-12-14T06:17:25.257Z,17.52
2022-12-14T06:19:54.621Z,17.08
2022-12-14T06:22:27.673Z,17.60
2022-12-14T06:24:57.116Z,16.80
2022-12-14T06:27:26.549Z,17.77
2022-12-14T06:29:55.995Z,17.05
2022-12-14T06:32:25.792Z,17.80
2022-12-14T06:34:55.163Z,17.30
2022-12-14T06:37:27.214Z,16.35
2022-12-14T06:39:56.568Z,17.70
2022-12-14T06:42:25.957Z,16.83
2022-12-14T06:44:55.541Z,17.17
2022-12-14T06:47:25.849Z,17.45
2022-12-14T06:49:55.491Z,20.25
2022-12-14T06:52:27.999Z,17.77
2022-12-14T06:54:57.632Z,18.25
2022-12-14T06:57:27.173Z,16.85
2022-12-14T06:59:56.577Z,17.58
2022-12-14T07:02:26.211Z,17.40
2022-12-14T07:04:55.776Z,18.17
2022-12-14T07:07:28.092Z,15.82
2022-12-14T07:09:57.475Z,15.68
2022-12-14T07:12:27.926Z,18.65
2022-12-14T07:14:57.612Z,17.10
2022-12-14T07:17:26.989Z,19.38
2022-12-14T07:19:56.506Z,17.42
2022-12-14T07:22:28.497Z,18.63
2022-12-14T07:24:58.704Z,17.40
2022-12-14T07:27:28.116Z,18.80
2022-12-14T07:29:57.531Z,17.67
2022-12-14T07:32:26.976Z,19.08
2022-12-14T07:34:56.345Z,17.80
2022-12-14T07:37:28.365Z,18.08
2022-12-14T07:39:57.796Z,17.30
2022-12-14T07:42:27.165Z,19.67
2022-12-14T07:44:56.568Z,18.55
2022-12-14T07:47:26.072Z,19.38
2022-12-14T07:49:55.476Z,18.27
2022-12-14T07:52:24.886Z,19.15
2022-12-14T07:54:56.873Z,19.75
2022-12-14T07:57:26.424Z,19.02
2022-12-14T07:59:57.549Z,19.00
2022-12-14T08:02:27.299Z,19.25
2022-12-14T08:04:56.864Z,19.58
2022-12-14T08:07:26.294Z,21.70
2022-12-14T08:09:58.259Z,18.30
2022-12-14T08:12:27.625Z,21.08
2022-12-14T08:14:57.023Z,19.88
2022-12-14T08:17:26.404Z,18.80
2022-12-14T08:19:56.001Z,19.83
2022-12-14T08:22:25.450Z,20.60
2022-12-14T08:24:54.851Z,19.70
2022-12-14T08:27:26.800Z,18.10
2022-12-14T08:29:56.242Z,19.65
2022-12-14T08:32:30.944Z,19.55
2022-12-14T08:35:01.967Z,19.08
2022-12-14T08:37:31.359Z,18.05
2022-12-14T08:40:00.781Z,18.70
2022-12-14T08:42:33.015Z,19.95
2022-12-14T08:45:02.434Z,18.38
2022-12-14T08:47:31.912Z,19.20
2022-12-14T08:50:01.329Z,19.23
2022-12-14T08:52:30.796Z,18.55
2022-12-14T08:55:00.156Z,19.38
2022-12-14T08:57:34.239Z,22.10
2022-12-14T09:00:03.759Z,29.92
2022-12-14T09:02:33.395Z,20.58
2022-12-14T09:05:02.859Z,20.52
2022-12-14T09:07:32.654Z,21.90
2022-12-14T09:10:02.166Z,20.20
2022-12-14T09:12:35.603Z,19.20
2022-12-14T09:15:05.044Z,19.98
2022-12-14T09:17:34.548Z,23.05
2022-12-14T09:20:04.000Z,25.35
2022-12-14T09:22:33.452Z,25.50
2022-12-14T09:25:04.588Z,23.25
2022-12-14T09:27:36.644Z,19.92
2022-12-14T09:30:06.770Z,21.70
2022-12-14T09:32:36.193Z,19.65
2022-12-14T09:35:05.568Z,19.80
2022-12-14T09:37:34.933Z,21.58
2022-12-14T09:40:04.372Z,23.48
2022-12-14T09:42:51.414Z,20.20
2022-12-14T09:45:25.090Z,19.67
2022-12-14T09:47:59.097Z,23.85
2022-12-14T09:50:28.884Z,23.98
2022-12-14T09:53:00.329Z,21.20
2022-12-14T09:55:33.822Z,20.20
2022-12-14T09:58:09.475Z,19.17
2022-12-14T10:00:51.460Z,19.48
2022-12-14T10:03:36.306Z,16.85
2022-12-14T10:06:35.736Z,17.92
2022-12-14T10:09:14.228Z,18.13
2022-12-14T10:11:50.456Z,18.13
2022-12-14T10:14:28.233Z,18.23
2022-12-14T10:17:03.090Z,17.20
2022-12-14T10:19:40.856Z,18.60
2022-12-14T10:22:14.821Z,17.30
2022-12-14T10:24:46.925Z,16.73
2022-12-14T10:27:23.633Z,17.23
2022-12-14T10:30:01.349Z,16.75
2022-12-14T10:32:35.861Z,15.52
2022-12-14T10:35:15.906Z,21.80
2022-12-14T10:37:47.260Z,17.05
2022-12-14T10:40:32.561Z,17.48
2022-12-14T10:43:10.333Z,16.98
2022-12-14T10:45:44.796Z,16.20
2022-12-14T10:48:41.958Z,17.52
2022-12-14T10:51:14.752Z,21.58
2022-12-14T10:53:47.817Z,17.80
2022-12-14T10:56:22.794Z,17.38
2022-12-14T10:59:15.686Z,17.30
2022-12-14T11:01:51.174Z,17.13
2022-12-14T11:04:30.853Z,15.85
2022-12-14T11:07:01.406Z,15.00
2022-12-14T11:09:31.785Z,15.05
2022-12-14T11:12:02.671Z,16.10
2022-12-14T11:14:32.673Z,16.45
2022-12-14T11:17:05.824Z,16.33
2022-12-14T11:19:37.647Z,16.85
2022-12-14T11:22:15.782Z,15.27
2022-12-14T11:24:51.737Z,14.52
2022-12-14T11:27:24.044Z,15.38
2022-12-14T11:29:54.025Z,16.02
2022-12-14T11:32:27.716Z,15.20
2022-12-14T11:35:01.396Z,16.30
2022-12-14T11:37:32.701Z,15.82
2022-12-14T11:40:04.048Z,14.60
2022-12-14T11:42:33.526Z,15.55
2022-12-14T11:45:22.670Z,15.55
2022-12-14T11:48:13.742Z,14.13
2022-12-14T11:50:43.663Z,14.68
2022-12-14T11:53:14.758Z,13.57
2022-12-14T11:55:47.773Z,13.27
2022-12-14T11:58:19.665Z,13.93
2022-12-14T12:00:51.568Z,13.05
2022-12-14T12:03:27.263Z,12.30
2022-12-14T12:05:57.097Z,12.50
2022-12-14T12:08:29.288Z,14.10
2022-12-14T12:11:02.588Z,14.60
2022-12-14T12:13:34.291Z,15.45
2022-12-14T12:16:07.044Z,17.77
2022-12-14T12:18:46.282Z,14.35
2022-12-14T12:21:18.888Z,13.52
2022-12-14T12:23:51.875Z,14.35
2022-12-14T12:26:24.300Z,14.52
2022-12-14T12:28:57.019Z,13.00
2022-12-14T12:31:29.573Z,12.80
2022-12-14T12:34:05.367Z,12.27
2022-12-14T12:36:35.419Z,11.68
2022-12-14T12:39:08.002Z,12.40
2022-12-14T12:41:49.336Z,12.63
2022-12-14T12:44:28.931Z,13.15
2022-12-14T12:47:38.199Z,13.90
2022-12-14T12:50:06.954Z,14.00
2022-12-14T12:52:39.038Z,13.90
2022-12-14T12:55:12.272Z,14.90
2022-12-14T12:57:44.692Z,12.88
2022-12-14T13:00:20.188Z,13.38
2022-12-14T13:02:52.556Z,13.70
2022-12-14T13:05:46.212Z,14.25
2022-12-14T13:08:22.846Z,13.90
2022-12-14T13:11:24.672Z,13.97
2022-12-14T13:13:44.762Z,12.70
2022-12-14T13:16:24.675Z,11.40
2022-12-14T13:19:08.978Z,11.73
2022-12-14T13:21:54.545Z,13.57
2022-12-14T13:24:26.087Z,12.37
2022-12-14T13:27:15.310Z,11.67
2022-12-14T13:29:56.394Z,12.20
2022-12-14T13:32:43.492Z,11.43
2022-12-14T13:35:25.562Z,12.87
2022-12-14T13:38:10.032Z,11.87
2022-12-14T13:41:04.965Z,10.53
2022-12-14T13:43:54.357Z,10.80
2022-12-14T13:46:25.565Z,11.70
2022-12-14T13:48:56.853Z,11.40
2022-12-14T13:51:31.032Z,10.23
2022-12-14T13:54:07.978Z,10.27
2022-12-14T13:56:40.221Z,11.00
2022-12-14T13:59:26.440Z,10.60
2022-12-14T14:01:59.788Z,10.77
2022-12-14T14:04:31.043Z,11.53
2022-12-14T14:07:50.941Z,9.57
2022-12-14T14:10:34.203Z,10.07
2022-12-14T14:13:04.637Z,10.30
2022-12-14T14:18:50.593Z,10.83
2022-12-14T14:21:38.911Z,8.98
2022-12-14T14:24:26.369Z,9.10
2022-12-14T14:27:04.089Z,9.85
2022-12-14T14:29:34.076Z,9.88
2022-12-14T14:32:04.851Z,9.93
2022-12-14T14:34:40.173Z,11.52
2022-12-14T14:37:26.889Z,10.35
2022-12-14T14:40:18.857Z,10.75
2022-12-14T14:42:54.553Z,10.90
2022-12-14T14:45:31.568Z,11.50
2022-12-14T14:48:02.353Z,11.50
2022-12-14T14:50:34.806Z,11.05
2022-12-14T14:53:14.385Z,10.93
2022-12-14T14:55:55.549Z,11.73
2022-12-14T14:58:30.940Z,11.18
2022-12-14T15:01:15.599Z,11.40
2022-12-14T15:03:50.931Z,11.73
2022-12-14T15:06:23.747Z,11.88
2022-12-14T15:08:58.765Z,14.05
2022-12-14T15:11:37.332Z,12.65
2022-12-14T15:14:18.247Z,13.63
2022-12-14T15:16:48.240Z,13.02
2022-12-14T15:19:24.808Z,14.88
2022-12-14T15:21:56.533Z,15.10
2022-12-14T15:24:26.865Z,14.02
2022-12-14T15:26:58.909Z,15.13
2022-12-14T15:29:30.502Z,17.10
2022-12-14T15:32:04.119Z,15.70
2022-12-14T15:34:33.709Z,16.73
2022-12-14T15:37:03.442Z,17.17
2022-12-14T15:39:40.695Z,16.70
2022-12-14T15:42:18.104Z,17.92
2022-12-14T15:44:54.170Z,18.23
2022-12-14T15:47:29.792Z,16.88
2022-12-14T15:50:18.118Z,18.58
2022-12-14T15:52:48.481Z,18.20
2022-12-14T15:55:29.515Z,18.90
2022-12-14T15:58:03.236Z,20.83
2022-12-14T16:00:32.711Z,18.88
2022-12-14T16:03:06.954Z,18.63
2022-12-14T16:05:37.519Z,18.85
2022-12-14T16:08:08.276Z,20.80
2022-12-14T16:10:37.775Z,19.77
2022-12-14T16:13:12.476Z,18.83
2022-12-14T16:15:42.022Z,18.40
2022-12-14T16:18:15.144Z,20.13
2022-12-14T16:20:47.055Z,17.52
2022-12-14T16:23:28.853Z,18.65
2022-12-14T16:26:00.844Z,18.10
2022-12-14T16:28:34.980Z,17.17
2022-12-14T16:31:06.363Z,19.40
2022-12-14T16:33:37.608Z,19.67
2022-12-14T16:36:09.296Z,18.30
2022-12-14T16:38:44.169Z,18.65
2022-12-14T16:41:13.843Z,17.75
2022-12-14T16:43:57.362Z,18.80
2022-12-14T16:46:26.953Z,17.15
2022-12-14T16:49:24.822Z,18.33
2022-12-14T16:52:09.364Z,15.80
2022-12-14T16:54:40.448Z,17.33
2022-12-14T16:57:20.717Z,16.95
2022-12-14T17:00:02.301Z,17.17
2022-12-14T17:02:34.534Z,17.10
2022-12-14T17:05:07.220Z,17.55
2022-12-14T17:07:36.992Z,18.27
2022-12-14T17:10:07.103Z,19.08
2022-12-14T17:12:36.618Z,23.60
2022-12-14T17:15:09.632Z,37.03
2022-12-14T17:17:39.332Z,23.23
2022-12-14T17:20:14.248Z,26.88
2022-12-14T17:22:49.643Z,18.45
2022-12-14T17:25:20.295Z,25.92
2022-12-14T17:27:50.151Z,22.63
2022-12-14T17:30:24.412Z,20.88
2022-12-14T17:32:55.487Z,25.00
2022-12-14T17:35:28.720Z,17.20
2022-12-14T17:37:58.220Z,18.40
2022-12-14T17:40:28.400Z,18.25
2022-12-14T17:42:59.920Z,17.15
2022-12-14T17:45:32.964Z,18.80
2022-12-14T17:48:02.476Z,18.58
2022-12-14T17:50:32.235Z,21.13
2022-12-14T17:53:03.001Z,22.40
2022-12-14T17:55:33.130Z,18.65
2022-12-14T17:58:02.753Z,18.42
2022-12-14T18:00:47.532Z,15.85
2022-12-14T18:03:18.306Z,16.83
2022-12-14T18:05:49.551Z,17.90
2022-12-14T18:08:19.527Z,22.30
2022-12-14T18:10:50.290Z,18.75
2022-12-14T18:13:19.892Z,19.17
2022-12-14T18:15:54.062Z,18.27
2022-12-14T18:18:28.324Z,17.85
2022-12-14T18:21:00.215Z,18.63
2022-12-14T18:23:30.835Z,17.52
2022-12-14T18:26:02.847Z,17.70
2022-12-14T18:28:32.308Z,19.23
2022-12-14T18:31:07.307Z,18.40
2022-12-14T18:33:36.848Z,18.05
2022-12-14T18:36:06.696Z,19.25
2022-12-14T18:38:36.157Z,18.63
2022-12-14T18:41:08.631Z,17.42
2022-12-14T18:43:43.414Z,18.75
2022-12-14T18:46:16.113Z,18.40
2022-12-14T18:48:46.506Z,16.98
2022-12-14T18:51:17.199Z,18.67
2022-12-14T18:53:46.641Z,19.60
2022-12-14T18:56:18.485Z,18.02
2022-12-14T18:58:47.995Z,27.27
2022-12-14T19:01:22.394Z,42.08
2022-12-14T19:03:52.609Z,23.52
2022-12-14T19:09:15.155Z,17.95
2022-12-14T19:11:46.094Z,18.92
2022-12-14T19:14:15.596Z,19.27
2022-12-14T19:16:47.616Z,19.52
2022-12-14T19:19:19.951Z,20.63
2022-12-14T19:21:52.427Z,28.27
2022-12-14T19:24:22.150Z,20.38
2022-12-14T19:26:51.668Z,20.88
2022-12-14T19:29:21.203Z,19.75
2022-12-14T19:31:54.562Z,20.70
2022-12-14T19:34:25.107Z,19.70
2022-12-14T19:36:54.674Z,20.67
2022-12-14T19:39:24.382Z,20.58
2022-12-14T19:41:54.223Z,20.52
2022-12-14T19:44:23.908Z,20.58
2022-12-14T19:46:56.174Z,19.40
2022-12-14T19:49:25.659Z,19.45
2022-12-14T19:51:55.203Z,22.08
2022-12-14T19:54:25.072Z,21.90
2022-12-14T19:56:54.678Z,21.65
2022-12-14T19:59:24.351Z,20.60
2022-12-14T20:01:57.619Z,21.48
2022-12-14T20:04:27.245Z,21.98
2022-12-14T20:06:56.818Z,20.42
2022-12-14T20:09:26.393Z,20.77
2022-12-14T20:11:55.925Z,20.55
2022-12-14T20:14:25.371Z,20.77
2022-12-14T20:17:00.154Z,20.25
2022-12-14T20:19:29.606Z,21.73
2022-12-14T20:21:59.149Z,20.25
2022-12-14T20:24:28.636Z,20.25
2022-12-14T20:26:58.124Z,20.40
2022-12-14T20:29:27.969Z,19.90
2022-12-14T20:32:00.166Z,20.73
2022-12-14T20:34:30.726Z,21.70
2022-12-14T20:37:00.173Z,22.05
2022-12-14T20:39:29.623Z,21.30
2022-12-14T20:41:59.036Z,22.25
2022-12-14T20:44:28.519Z,23.45
2022-12-14T20:47:00.636Z,22.08
2022-12-14T20:49:32.901Z,21.25
2022-12-14T20:52:02.673Z,21.85
2022-12-14T20:54:32.214Z,20.70
2022-12-14T20:57:01.759Z,22.55
2022-12-14T20:59:31.220Z,22.25
2022-12-14T21:02:03.567Z,22.08
2022-12-14T21:04:33.147Z,21.80
2022-12-14T21:07:02.681Z,20.55
2022-12-14T21:09:32.113Z,21.20
2022-12-14T21:12:14.030Z,21.27
2022-12-14T21:14:48.167Z,20.25
2022-12-14T21:17:21.040Z,20.65
2022-12-14T21:19:51.063Z,19.83
2022-12-14T21:22:22.402Z,20.38
2022-12-14T21:25:02.937Z,20.50
2022-12-14T21:27:33.880Z,19.98
2022-12-14T21:30:03.459Z,20.65
2022-12-14T21:32:37.950Z,21.48
2022-12-14T21:35:08.901Z,18.35
2022-12-14T21:37:40.374Z,18.40
2022-12-14T21:40:31.181Z,22.27
2022-12-14T21:42:58.020Z,20.40
2022-12-14T21:45:27.553Z,19.52
2022-12-14T21:47:59.717Z,19.30
2022-12-14T21:50:29.239Z,19.48
2022-12-14T21:52:58.767Z,20.83
2022-12-14T21:55:28.285Z,18.40
2022-12-14T21:58:10.222Z,21.33
2022-12-14T22:00:40.364Z,20.83
2022-12-14T22:03:12.621Z,20.88
2022-12-14T22:05:42.323Z,20.63
2022-12-14T22:08:11.771Z,21.02
2022-12-14T22:10:41.273Z,20.33
2022-12-14T22:13:10.766Z,21.08
2022-12-14T22:15:40.296Z,18.85
2022-12-14T22:18:12.362Z,20.05
2022-12-14T22:20:41.820Z,18.92
2022-12-14T22:23:11.208Z,18.75
2022-12-14T22:25:40.665Z,15.48
2022-12-14T22:28:10.158Z,14.05
2022-12-14T22:30:39.974Z,15.30
2022-12-14T22:33:12.587Z,14.70
2022-12-14T22:35:42.220Z,14.98
2022-12-14T22:38:11.633Z,14.15
2022-12-14T22:40:41.075Z,15.48
2022-12-14T22:43:10.653Z,14.88
2022-12-14T22:45:40.104Z,15.60
2022-12-14T22:48:12.360Z,13.95
2022-12-14T22:50:41.905Z,15.40
2022-12-14T22:53:12.991Z,14.20
2022-12-14T22:55:46.355Z,13.75
2022-12-14T22:58:20.276Z,14.40
2022-12-14T23:00:50.954Z,15.48
2022-12-14T23:03:24.288Z,14.00
2022-12-14T23:05:58.773Z,14.93
2022-12-14T23:08:31.408Z,17.50
2022-12-14T23:11:13.323Z,14.45
2022-12-14T23:13:55.243Z,14.65
2022-12-14T23:16:37.252Z,12.88
2022-12-14T23:19:21.821Z,13.80
2022-12-14T23:22:03.830Z,14.82
2022-12-14T23:24:46.694Z,13.65
2022-12-14T23:27:28.619Z,14.43
2022-12-14T23:30:10.593Z,13.82
2022-12-14T23:32:52.692Z,14.27
2022-12-14T23:35:38.224Z,13.35
2022-12-14T23:38:20.513Z,14.90
2022-12-14T23:41:02.494Z,12.05
2022-12-14T23:43:44.478Z,12.75
2022-12-14T23:46:26.510Z,12.90
2022-12-14T23:49:15.101Z,11.70
2022-12-14T23:52:00.495Z,13.25
2022-12-14T23:54:42.424Z,13.00
2022-12-14T23:57:26.043Z,12.63
